sensor_id;sensor_type;location;lat;lon;timestamp;P1;durP1;ratioP1;P2;durP2;ratioP2
59585;SDS011;45408;52.686;7.310;2023-08-06T00:00:39;7.70;;;4.03;;
59585;SDS011;45408;52.686;7.310;2023-08-06T00:03:05;7.32;;;4.43;;
59585;SDS011;45408;52.686;7.310;2023-08-06T00:05:31;5.68;;;3.72;;
59585;SDS011;45408;52.686;7.310;2023-08-06T00:07:57;7.90;;;4.15;;
59585;SDS011;45408;52.686;7.310;2023-08-06T00:10:23;8.23;;;4.03;;
59585;SDS011;45408;52.686;7.310;2023-08-06T00:12:49;9.52;;;4.57;;
59585;SDS011;45408;52.686;7.310;2023-08-06T00:15:15;5.90;;;4.07;;
59585;SDS011;45408;52.686;7.310;2023-08-06T00:17:41;5.93;;;3.85;;
59585;SDS011;45408;52.686;7.310;2023-08-06T00:20:07;5.93;;;3.97;;
59585;SDS011;45408;52.686;7.310;2023-08-06T00:22:34;6.50;;;4.30;;
59585;SDS011;45408;52.686;7.310;2023-08-06T00:25:00;6.07;;;3.97;;
59585;SDS011;45408;52.686;7.310;2023-08-06T00:27:26;6.50;;;4.72;;
59585;SDS011;45408;52.686;7.310;2023-08-06T00:29:52;7.95;;;4.57;;
59585;SDS011;45408;52.686;7.310;2023-08-06T00:32:18;6.43;;;4.28;;
59585;SDS011;45408;52.686;7.310;2023-08-06T00:34:44;6.65;;;4.57;;
59585;SDS011;45408;52.686;7.310;2023-08-06T00:37:10;7.18;;;4.15;;
59585;SDS011;45408;52.686;7.310;2023-08-06T00:39:36;5.68;;;4.20;;
59585;SDS011;45408;52.686;7.310;2023-08-06T00:42:02;5.30;;;4.18;;
59585;SDS011;45408;52.686;7.310;2023-08-06T00:44:28;11.55;;;4.07;;
59585;SDS011;45408;52.686;7.310;2023-08-06T00:46:57;10.05;;;4.40;;
59585;SDS011;45408;52.686;7.310;2023-08-06T00:49:23;8.52;;;4.53;;
59585;SDS011;45408;52.686;7.310;2023-08-06T00:51:49;6.53;;;4.30;;
59585;SDS011;45408;52.686;7.310;2023-08-06T00:54:15;9.52;;;4.78;;
59585;SDS011;45408;52.686;7.310;2023-08-06T00:56:41;10.85;;;4.70;;
59585;SDS011;45408;52.686;7.310;2023-08-06T00:59:07;6.18;;;4.38;;
59585;SDS011;45408;52.686;7.310;2023-08-06T01:01:35;6.75;;;4.82;;
59585;SDS011;45408;52.686;7.310;2023-08-06T01:04:01;6.35;;;4.50;;
59585;SDS011;45408;52.686;7.310;2023-08-06T01:09:17;5.75;;;4.88;;
59585;SDS011;45408;52.686;7.310;2023-08-06T01:17:10;6.78;;;4.50;;
59585;SDS011;45408;52.686;7.310;2023-08-06T01:19:37;6.28;;;4.30;;
59585;SDS011;45408;52.686;7.310;2023-08-06T01:22:03;9.25;;;4.75;;
59585;SDS011;45408;52.686;7.310;2023-08-06T01:24:29;5.28;;;4.50;;
59585;SDS011;45408;52.686;7.310;2023-08-06T01:27:42;6.63;;;4.68;;
59585;SDS011;45408;52.686;7.310;2023-08-06T01:29:42;7.88;;;4.80;;
59585;SDS011;45408;52.686;7.310;2023-08-06T01:34:36;8.75;;;4.40;;
59585;SDS011;45408;52.686;7.310;2023-08-06T01:37:04;7.05;;;4.10;;
59585;SDS011;45408;52.686;7.310;2023-08-06T01:39:32;8.50;;;4.25;;
59585;SDS011;45408;52.686;7.310;2023-08-06T01:41:58;6.15;;;4.50;;
59585;SDS011;45408;52.686;7.310;2023-08-06T01:44:24;7.18;;;4.95;;
59585;SDS011;45408;52.686;7.310;2023-08-06T01:46:50;6.10;;;4.20;;
59585;SDS011;45408;52.686;7.310;2023-08-06T01:49:16;7.15;;;4.63;;
59585;SDS011;45408;52.686;7.310;2023-08-06T01:51:42;6.93;;;4.20;;
59585;SDS011;45408;52.686;7.310;2023-08-06T01:54:08;6.50;;;5.03;;
59585;SDS011;45408;52.686;7.310;2023-08-06T01:56:34;6.88;;;4.88;;
59585;SDS011;45408;52.686;7.310;2023-08-06T01:59:00;6.75;;;4.70;;
59585;SDS011;45408;52.686;7.310;2023-08-06T02:01:26;8.63;;;4.85;;
59585;SDS011;45408;52.686;7.310;2023-08-06T02:03:52;6.28;;;4.30;;
59585;SDS011;45408;52.686;7.310;2023-08-06T02:06:18;5.63;;;4.10;;
59585;SDS011;45408;52.686;7.310;2023-08-06T02:08:44;8.43;;;4.25;;
59585;SDS011;45408;52.686;7.310;2023-08-06T02:11:10;6.20;;;3.83;;
59585;SDS011;45408;52.686;7.310;2023-08-06T02:13:36;10.35;;;4.53;;
59585;SDS011;45408;52.686;7.310;2023-08-06T02:16:02;5.78;;;4.50;;
59585;SDS011;45408;52.686;7.310;2023-08-06T02:18:28;8.18;;;4.90;;
59585;SDS011;45408;52.686;7.310;2023-08-06T02:21:00;9.65;;;4.40;;
59585;SDS011;45408;52.686;7.310;2023-08-06T02:23:26;8.20;;;4.70;;
59585;SDS011;45408;52.686;7.310;2023-08-06T02:26:02;8.02;;;5.00;;
59585;SDS011;45408;52.686;7.310;2023-08-06T02:28:28;5.85;;;4.53;;
59585;SDS011;45408;52.686;7.310;2023-08-06T02:30:54;5.82;;;4.20;;
59585;SDS011;45408;52.686;7.310;2023-08-06T02:33:20;5.20;;;4.20;;
59585;SDS011;45408;52.686;7.310;2023-08-06T02:35:46;6.55;;;4.68;;
59585;SDS011;45408;52.686;7.310;2023-08-06T02:38:12;9.60;;;4.20;;
59585;SDS011;45408;52.686;7.310;2023-08-06T02:40:45;6.43;;;4.75;;
59585;SDS011;45408;52.686;7.310;2023-08-06T02:43:11;7.07;;;4.13;;
59585;SDS011;45408;52.686;7.310;2023-08-06T02:45:37;7.22;;;4.55;;
59585;SDS011;45408;52.686;7.310;2023-08-06T02:48:03;9.55;;;4.70;;
59585;SDS011;45408;52.686;7.310;2023-08-06T02:50:29;6.07;;;4.65;;
59585;SDS011;45408;52.686;7.310;2023-08-06T02:52:55;5.15;;;4.03;;
59585;SDS011;45408;52.686;7.310;2023-08-06T02:55:21;4.90;;;4.32;;
59585;SDS011;45408;52.686;7.310;2023-08-06T02:57:47;6.57;;;4.45;;
59585;SDS011;45408;52.686;7.310;2023-08-06T03:00:13;9.40;;;5.18;;
59585;SDS011;45408;52.686;7.310;2023-08-06T03:02:39;5.97;;;4.50;;
59585;SDS011;45408;52.686;7.310;2023-08-06T03:05:05;5.45;;;4.88;;
59585;SDS011;45408;52.686;7.310;2023-08-06T03:07:31;9.35;;;5.10;;
59585;SDS011;45408;52.686;7.310;2023-08-06T03:09:59;5.50;;;3.70;;
59585;SDS011;45408;52.686;7.310;2023-08-06T03:12:26;8.00;;;4.90;;
59585;SDS011;45408;52.686;7.310;2023-08-06T03:14:52;8.20;;;4.85;;
59585;SDS011;45408;52.686;7.310;2023-08-06T03:17:18;7.05;;;5.20;;
59585;SDS011;45408;52.686;7.310;2023-08-06T03:19:44;7.32;;;5.30;;
59585;SDS011;45408;52.686;7.310;2023-08-06T03:22:10;6.82;;;4.85;;
59585;SDS011;45408;52.686;7.310;2023-08-06T03:24:36;6.45;;;4.88;;
59585;SDS011;45408;52.686;7.310;2023-08-06T03:27:02;7.63;;;5.00;;
59585;SDS011;45408;52.686;7.310;2023-08-06T03:29:28;8.95;;;5.50;;
59585;SDS011;45408;52.686;7.310;2023-08-06T03:31:54;7.60;;;5.18;;
59585;SDS011;45408;52.686;7.310;2023-08-06T03:34:20;8.93;;;5.57;;
59585;SDS011;45408;52.686;7.310;2023-08-06T03:36:46;7.03;;;5.18;;
59585;SDS011;45408;52.686;7.310;2023-08-06T03:39:12;6.38;;;4.78;;
59585;SDS011;45408;52.686;7.310;2023-08-06T03:41:39;7.05;;;5.30;;
59585;SDS011;45408;52.686;7.310;2023-08-06T03:44:05;9.82;;;5.28;;
59585;SDS011;45408;52.686;7.310;2023-08-06T03:46:31;6.95;;;5.25;;
59585;SDS011;45408;52.686;7.310;2023-08-06T03:48:59;8.17;;;5.57;;
59585;SDS011;45408;52.686;7.310;2023-08-06T03:51:24;7.20;;;4.70;;
59585;SDS011;45408;52.686;7.310;2023-08-06T03:53:50;8.07;;;5.85;;
59585;SDS011;45408;52.686;7.310;2023-08-06T03:56:16;9.55;;;5.57;;
59585;SDS011;45408;52.686;7.310;2023-08-06T03:58:42;8.93;;;5.40;;
59585;SDS011;45408;52.686;7.310;2023-08-06T04:01:08;8.55;;;5.60;;
59585;SDS011;45408;52.686;7.310;2023-08-06T04:03:34;7.45;;;6.00;;
59585;SDS011;45408;52.686;7.310;2023-08-06T04:06:02;7.28;;;5.55;;
59585;SDS011;45408;52.686;7.310;2023-08-06T04:08:28;8.43;;;5.65;;
59585;SDS011;45408;52.686;7.310;2023-08-06T04:10:54;10.77;;;6.10;;
59585;SDS011;45408;52.686;7.310;2023-08-06T04:13:20;8.95;;;5.97;;
59585;SDS011;45408;52.686;7.310;2023-08-06T04:15:46;8.85;;;6.03;;
59585;SDS011;45408;52.686;7.310;2023-08-06T04:18:12;7.97;;;6.07;;
59585;SDS011;45408;52.686;7.310;2023-08-06T04:20:45;9.00;;;6.07;;
59585;SDS011;45408;52.686;7.310;2023-08-06T04:23:11;7.93;;;6.35;;
59585;SDS011;45408;52.686;7.310;2023-08-06T04:25:37;9.55;;;6.00;;
59585;SDS011;45408;52.686;7.310;2023-08-06T04:28:03;9.38;;;6.85;;
59585;SDS011;45408;52.686;7.310;2023-08-06T04:30:29;6.85;;;5.63;;
59585;SDS011;45408;52.686;7.310;2023-08-06T04:32:56;11.85;;;6.40;;
59585;SDS011;45408;52.686;7.310;2023-08-06T04:35:23;10.17;;;6.67;;
59585;SDS011;45408;52.686;7.310;2023-08-06T04:37:49;9.80;;;6.05;;
59585;SDS011;45408;52.686;7.310;2023-08-06T04:40:15;10.38;;;6.55;;
59585;SDS011;45408;52.686;7.310;2023-08-06T04:42:41;13.15;;;7.15;;
59585;SDS011;45408;52.686;7.310;2023-08-06T04:45:07;14.40;;;6.93;;
59585;SDS011;45408;52.686;7.310;2023-08-06T04:47:33;8.57;;;7.03;;
59585;SDS011;45408;52.686;7.310;2023-08-06T04:49:59;11.30;;;6.78;;
59585;SDS011;45408;52.686;7.310;2023-08-06T04:52:25;9.32;;;6.88;;
59585;SDS011;45408;52.686;7.310;2023-08-06T04:54:53;14.85;;;7.03;;
59585;SDS011;45408;52.686;7.310;2023-08-06T04:57:19;7.97;;;5.82;;
59585;SDS011;45408;52.686;7.310;2023-08-06T04:59:45;11.27;;;6.53;;
59585;SDS011;45408;52.686;7.310;2023-08-06T05:02:11;8.95;;;6.47;;
59585;SDS011;45408;52.686;7.310;2023-08-06T05:04:37;10.85;;;7.03;;
59585;SDS011;45408;52.686;7.310;2023-08-06T05:07:03;9.45;;;6.78;;
59585;SDS011;45408;52.686;7.310;2023-08-06T05:09:29;10.77;;;6.30;;
59585;SDS011;45408;52.686;7.310;2023-08-06T05:11:55;9.80;;;6.63;;
59585;SDS011;45408;52.686;7.310;2023-08-06T05:14:21;8.65;;;5.95;;
59585;SDS011;45408;52.686;7.310;2023-08-06T05:16:47;8.88;;;6.63;;
59585;SDS011;45408;52.686;7.310;2023-08-06T05:19:13;9.23;;;6.60;;
59585;SDS011;45408;52.686;7.310;2023-08-06T05:21:39;9.05;;;6.50;;
59585;SDS011;45408;52.686;7.310;2023-08-06T05:24:05;9.18;;;6.68;;
59585;SDS011;45408;52.686;7.310;2023-08-06T05:26:31;11.38;;;6.70;;
59585;SDS011;45408;52.686;7.310;2023-08-06T05:28:57;18.55;;;6.18;;
59585;SDS011;45408;52.686;7.310;2023-08-06T05:31:23;10.82;;;6.43;;
59585;SDS011;45408;52.686;7.310;2023-08-06T05:33:49;9.15;;;6.30;;
59585;SDS011;45408;52.686;7.310;2023-08-06T05:36:15;8.05;;;6.00;;
59585;SDS011;45408;52.686;7.310;2023-08-06T05:38:42;8.95;;;6.40;;
59585;SDS011;45408;52.686;7.310;2023-08-06T05:41:08;8.73;;;6.10;;
59585;SDS011;45408;52.686;7.310;2023-08-06T05:43:34;8.13;;;6.43;;
59585;SDS011;45408;52.686;7.310;2023-08-06T05:46:00;11.55;;;6.57;;
59585;SDS011;45408;52.686;7.310;2023-08-06T05:48:26;7.40;;;6.35;;
59585;SDS011;45408;52.686;7.310;2023-08-06T05:50:53;9.65;;;6.15;;
59585;SDS011;45408;52.686;7.310;2023-08-06T05:53:18;10.60;;;6.25;;
59585;SDS011;45408;52.686;7.310;2023-08-06T05:55:44;8.40;;;5.80;;
59585;SDS011;45408;52.686;7.310;2023-08-06T05:58:10;12.35;;;6.60;;
59585;SDS011;45408;52.686;7.310;2023-08-06T06:00:36;7.75;;;5.65;;
59585;SDS011;45408;52.686;7.310;2023-08-06T06:03:02;8.30;;;6.05;;
59585;SDS011;45408;52.686;7.310;2023-08-06T06:05:28;8.07;;;6.03;;
59585;SDS011;45408;52.686;7.310;2023-08-06T06:07:54;7.85;;;5.65;;
59585;SDS011;45408;52.686;7.310;2023-08-06T06:10:20;10.02;;;6.43;;
59585;SDS011;45408;52.686;7.310;2023-08-06T06:12:46;11.82;;;5.15;;
59585;SDS011;45408;52.686;7.310;2023-08-06T06:15:12;6.95;;;5.55;;
59585;SDS011;45408;52.686;7.310;2023-08-06T06:17:38;7.20;;;5.28;;
59585;SDS011;45408;52.686;7.310;2023-08-06T06:20:04;8.02;;;5.03;;
59585;SDS011;45408;52.686;7.310;2023-08-06T06:22:30;9.57;;;5.72;;
59585;SDS011;45408;52.686;7.310;2023-08-06T06:24:56;6.78;;;5.20;;
59585;SDS011;45408;52.686;7.310;2023-08-06T06:27:22;6.88;;;5.25;;
59585;SDS011;45408;52.686;7.310;2023-08-06T06:29:48;7.72;;;5.90;;
59585;SDS011;45408;52.686;7.310;2023-08-06T06:32:14;10.57;;;6.00;;
59585;SDS011;45408;52.686;7.310;2023-08-06T06:34:40;8.45;;;5.50;;
59585;SDS011;45408;52.686;7.310;2023-08-06T06:37:06;10.02;;;5.32;;
59585;SDS011;45408;52.686;7.310;2023-08-06T06:39:32;8.65;;;5.55;;
59585;SDS011;45408;52.686;7.310;2023-08-06T06:41:58;6.18;;;5.00;;
59585;SDS011;45408;52.686;7.310;2023-08-06T06:44:24;11.25;;;6.30;;
59585;SDS011;45408;52.686;7.310;2023-08-06T06:46:50;7.47;;;5.85;;
59585;SDS011;45408;52.686;7.310;2023-08-06T06:49:16;6.78;;;5.35;;
59585;SDS011;45408;52.686;7.310;2023-08-06T06:51:42;9.02;;;5.40;;
59585;SDS011;45408;52.686;7.310;2023-08-06T06:54:08;9.43;;;5.68;;
59585;SDS011;45408;52.686;7.310;2023-08-06T06:56:34;10.07;;;5.85;;
59585;SDS011;45408;52.686;7.310;2023-08-06T06:59:00;7.82;;;5.82;;
59585;SDS011;45408;52.686;7.310;2023-08-06T07:01:26;7.63;;;5.47;;
59585;SDS011;45408;52.686;7.310;2023-08-06T07:03:52;11.20;;;5.03;;
59585;SDS011;45408;52.686;7.310;2023-08-06T07:06:18;8.52;;;6.32;;
59585;SDS011;45408;52.686;7.310;2023-08-06T07:08:44;7.15;;;5.88;;
59585;SDS011;45408;52.686;7.310;2023-08-06T07:11:10;5.22;;;4.72;;
59585;SDS011;45408;52.686;7.310;2023-08-06T07:13:36;9.13;;;5.30;;
59585;SDS011;45408;52.686;7.310;2023-08-06T07:16:02;8.85;;;6.13;;
59585;SDS011;45408;52.686;7.310;2023-08-06T07:18:28;7.95;;;5.82;;
59585;SDS011;45408;52.686;7.310;2023-08-06T07:20:55;9.80;;;5.97;;
59585;SDS011;45408;52.686;7.310;2023-08-06T07:23:22;7.45;;;5.72;;
59585;SDS011;45408;52.686;7.310;2023-08-06T07:25:48;7.28;;;5.65;;
59585;SDS011;45408;52.686;7.310;2023-08-06T07:28:14;7.32;;;5.80;;
59585;SDS011;45408;52.686;7.310;2023-08-06T07:30:41;7.90;;;5.28;;
59585;SDS011;45408;52.686;7.310;2023-08-06T07:33:10;5.45;;;4.15;;
59585;SDS011;45408;52.686;7.310;2023-08-06T07:35:36;7.65;;;4.85;;
59585;SDS011;45408;52.686;7.310;2023-08-06T07:38:08;9.38;;;6.00;;
59585;SDS011;45408;52.686;7.310;2023-08-06T07:40:40;11.02;;;5.15;;
59585;SDS011;45408;52.686;7.310;2023-08-06T07:45:57;6.03;;;4.57;;
59585;SDS011;45408;52.686;7.310;2023-08-06T07:48:23;10.13;;;5.88;;
59585;SDS011;45408;52.686;7.310;2023-08-06T07:50:51;9.15;;;5.55;;
59585;SDS011;45408;52.686;7.310;2023-08-06T07:53:18;8.77;;;6.10;;
59585;SDS011;45408;52.686;7.310;2023-08-06T07:55:47;8.15;;;4.90;;
59585;SDS011;45408;52.686;7.310;2023-08-06T07:58:13;9.68;;;5.95;;
59585;SDS011;45408;52.686;7.310;2023-08-06T08:00:40;11.40;;;6.32;;
59585;SDS011;45408;52.686;7.310;2023-08-06T08:03:07;12.02;;;7.03;;
59585;SDS011;45408;52.686;7.310;2023-08-06T08:05:33;10.13;;;6.13;;
59585;SDS011;45408;52.686;7.310;2023-08-06T08:07:59;8.77;;;6.00;;
59585;SDS011;45408;52.686;7.310;2023-08-06T08:10:25;5.53;;;4.75;;
59585;SDS011;45408;52.686;7.310;2023-08-06T08:12:51;8.55;;;5.35;;
59585;SDS011;45408;52.686;7.310;2023-08-06T08:15:17;7.68;;;5.03;;
59585;SDS011;45408;52.686;7.310;2023-08-06T08:17:43;7.75;;;5.72;;
59585;SDS011;45408;52.686;7.310;2023-08-06T08:20:09;9.25;;;6.05;;
59585;SDS011;45408;52.686;7.310;2023-08-06T08:22:35;7.30;;;5.60;;
59585;SDS011;45408;52.686;7.310;2023-08-06T08:25:01;8.55;;;6.03;;
59585;SDS011;45408;52.686;7.310;2023-08-06T08:27:28;6.93;;;5.72;;
59585;SDS011;45408;52.686;7.310;2023-08-06T08:29:55;11.57;;;7.50;;
59585;SDS011;45408;52.686;7.310;2023-08-06T08:32:20;12.35;;;5.95;;
59585;SDS011;45408;52.686;7.310;2023-08-06T08:34:47;10.13;;;6.30;;
59585;SDS011;45408;52.686;7.310;2023-08-06T08:37:13;8.18;;;6.35;;
59585;SDS011;45408;52.686;7.310;2023-08-06T08:39:39;8.05;;;6.78;;
59585;SDS011;45408;52.686;7.310;2023-08-06T08:42:05;6.88;;;5.13;;
59585;SDS011;45408;52.686;7.310;2023-08-06T08:44:32;9.48;;;7.43;;
59585;SDS011;45408;52.686;7.310;2023-08-06T08:46:59;8.15;;;5.80;;
59585;SDS011;45408;52.686;7.310;2023-08-06T08:49:26;6.57;;;5.80;;
59585;SDS011;45408;52.686;7.310;2023-08-06T08:51:53;12.30;;;5.53;;
59585;SDS011;45408;52.686;7.310;2023-08-06T08:54:21;6.13;;;5.00;;
59585;SDS011;45408;52.686;7.310;2023-08-06T08:56:48;7.00;;;5.53;;
59585;SDS011;45408;52.686;7.310;2023-08-06T08:59:14;7.68;;;5.35;;
59585;SDS011;45408;52.686;7.310;2023-08-06T09:01:40;14.15;;;5.47;;
59585;SDS011;45408;52.686;7.310;2023-08-06T09:04:08;7.20;;;5.40;;
59585;SDS011;45408;52.686;7.310;2023-08-06T09:06:36;8.98;;;5.70;;
59585;SDS011;45408;52.686;7.310;2023-08-06T09:09:06;7.85;;;6.28;;
59585;SDS011;45408;52.686;7.310;2023-08-06T09:11:33;8.40;;;6.15;;
59585;SDS011;45408;52.686;7.310;2023-08-06T09:14:04;7.50;;;6.43;;
59585;SDS011;45408;52.686;7.310;2023-08-06T09:16:32;8.07;;;5.22;;
59585;SDS011;45408;52.686;7.310;2023-08-06T09:19:06;8.25;;;5.90;;
59585;SDS011;45408;52.686;7.310;2023-08-06T09:21:32;6.18;;;4.70;;
59585;SDS011;45408;52.686;7.310;2023-08-06T09:23:58;9.32;;;5.05;;
59585;SDS011;45408;52.686;7.310;2023-08-06T09:26:24;9.90;;;5.35;;
59585;SDS011;45408;52.686;7.310;2023-08-06T09:28:58;6.57;;;4.97;;
59585;SDS011;45408;52.686;7.310;2023-08-06T09:31:28;5.70;;;4.18;;
59585;SDS011;45408;52.686;7.310;2023-08-06T09:33:59;7.32;;;4.90;;
59585;SDS011;45408;52.686;7.310;2023-08-06T09:36:26;7.15;;;4.95;;
59585;SDS011;45408;52.686;7.310;2023-08-06T09:38:52;7.10;;;5.32;;
59585;SDS011;45408;52.686;7.310;2023-08-06T09:41:25;6.15;;;4.32;;
59585;SDS011;45408;52.686;7.310;2023-08-06T09:43:53;6.50;;;4.07;;
59585;SDS011;45408;52.686;7.310;2023-08-06T09:46:19;7.32;;;4.43;;
59585;SDS011;45408;52.686;7.310;2023-08-06T09:48:47;5.28;;;4.15;;
59585;SDS011;45408;52.686;7.310;2023-08-06T09:51:14;11.57;;;4.50;;
59585;SDS011;45408;52.686;7.310;2023-08-06T09:53:40;5.90;;;4.10;;
59585;SDS011;45408;52.686;7.310;2023-08-06T09:56:06;5.32;;;3.92;;
59585;SDS011;45408;52.686;7.310;2023-08-06T09:58:32;5.93;;;4.32;;
59585;SDS011;45408;52.686;7.310;2023-08-06T10:01:01;8.65;;;4.45;;
59585;SDS011;45408;52.686;7.310;2023-08-06T10:03:28;8.23;;;4.00;;
59585;SDS011;45408;52.686;7.310;2023-08-06T10:05:57;5.00;;;3.83;;
59585;SDS011;45408;52.686;7.310;2023-08-06T10:08:23;5.90;;;4.30;;
59585;SDS011;45408;52.686;7.310;2023-08-06T10:10:49;4.85;;;3.78;;
59585;SDS011;45408;52.686;7.310;2023-08-06T10:13:16;6.80;;;4.07;;
59585;SDS011;45408;52.686;7.310;2023-08-06T10:15:42;5.95;;;4.32;;
59585;SDS011;45408;52.686;7.310;2023-08-06T10:18:08;4.50;;;3.97;;
59585;SDS011;45408;52.686;7.310;2023-08-06T10:20:35;6.80;;;4.20;;
59585;SDS011;45408;52.686;7.310;2023-08-06T10:23:05;6.07;;;4.90;;
59585;SDS011;45408;52.686;7.310;2023-08-06T10:25:33;5.22;;;3.90;;
59585;SDS011;45408;52.686;7.310;2023-08-06T10:27:59;6.47;;;4.22;;
59585;SDS011;45408;52.686;7.310;2023-08-06T10:30:29;4.07;;;3.67;;
59585;SDS011;45408;52.686;7.310;2023-08-06T10:33:03;5.50;;;4.20;;
59585;SDS011;45408;52.686;7.310;2023-08-06T10:35:36;7.70;;;4.50;;
59585;SDS011;45408;52.686;7.310;2023-08-06T10:38:03;7.15;;;4.65;;
59585;SDS011;45408;52.686;7.310;2023-08-06T10:40:29;6.00;;;4.15;;
59585;SDS011;45408;52.686;7.310;2023-08-06T10:42:58;6.53;;;4.00;;
59585;SDS011;45408;52.686;7.310;2023-08-06T10:47:53;4.53;;;3.30;;
59585;SDS011;45408;52.686;7.310;2023-08-06T10:50:20;5.55;;;3.40;;
59585;SDS011;45408;52.686;7.310;2023-08-06T10:52:46;6.65;;;3.70;;
59585;SDS011;45408;52.686;7.310;2023-08-06T10:55:13;5.32;;;4.13;;
59585;SDS011;45408;52.686;7.310;2023-08-06T10:57:39;6.70;;;3.83;;
59585;SDS011;45408;52.686;7.310;2023-08-06T11:00:06;6.10;;;3.53;;
59585;SDS011;45408;52.686;7.310;2023-08-06T11:02:33;5.47;;;3.85;;
59585;SDS011;45408;52.686;7.310;2023-08-06T11:05:04;5.88;;;3.55;;
59585;SDS011;45408;52.686;7.310;2023-08-06T11:07:30;4.15;;;3.30;;
59585;SDS011;45408;52.686;7.310;2023-08-06T11:10:09;8.55;;;4.00;;
59585;SDS011;45408;52.686;7.310;2023-08-06T11:12:35;4.07;;;3.67;;
59585;SDS011;45408;52.686;7.310;2023-08-06T11:15:02;7.50;;;3.53;;
59585;SDS011;45408;52.686;7.310;2023-08-06T11:17:29;6.55;;;3.58;;
59585;SDS011;45408;52.686;7.310;2023-08-06T11:19:56;5.63;;;3.53;;
59585;SDS011;45408;52.686;7.310;2023-08-06T11:22:24;5.63;;;3.80;;
59585;SDS011;45408;52.686;7.310;2023-08-06T11:24:50;4.97;;;3.95;;
59585;SDS011;45408;52.686;7.310;2023-08-06T11:27:16;4.25;;;3.53;;
59585;SDS011;45408;52.686;7.310;2023-08-06T11:29:43;7.18;;;4.03;;
59585;SDS011;45408;52.686;7.310;2023-08-06T11:32:10;6.38;;;3.55;;
59585;SDS011;45408;52.686;7.310;2023-08-06T11:34:36;4.10;;;3.33;;
59585;SDS011;45408;52.686;7.310;2023-08-06T11:37:03;5.15;;;3.63;;
59585;SDS011;45408;52.686;7.310;2023-08-06T11:39:35;6.65;;;2.88;;
59585;SDS011;45408;52.686;7.310;2023-08-06T11:42:05;5.88;;;3.20;;
59585;SDS011;45408;52.686;7.310;2023-08-06T11:44:32;4.50;;;3.20;;
59585;SDS011;45408;52.686;7.310;2023-08-06T11:46:58;4.20;;;3.35;;
59585;SDS011;45408;52.686;7.310;2023-08-06T11:52:13;4.55;;;3.20;;
59585;SDS011;45408;52.686;7.310;2023-08-06T11:54:39;4.95;;;3.10;;
59585;SDS011;45408;52.686;7.310;2023-08-06T11:57:05;4.82;;;3.22;;
59585;SDS011;45408;52.686;7.310;2023-08-06T11:59:32;3.70;;;3.08;;
59585;SDS011;45408;52.686;7.310;2023-08-06T12:02:04;3.97;;;3.03;;
59585;SDS011;45408;52.686;7.310;2023-08-06T12:04:31;5.70;;;2.90;;
59585;SDS011;45408;52.686;7.310;2023-08-06T12:07:06;5.82;;;3.00;;
59585;SDS011;45408;52.686;7.310;2023-08-06T12:09:35;3.35;;;2.65;;
59585;SDS011;45408;52.686;7.310;2023-08-06T12:12:01;3.10;;;2.60;;
59585;SDS011;45408;52.686;7.310;2023-08-06T12:14:28;3.38;;;2.72;;
59585;SDS011;45408;52.686;7.310;2023-08-06T12:16:54;4.43;;;2.53;;
59585;SDS011;45408;52.686;7.310;2023-08-06T12:19:20;4.80;;;2.58;;
59585;SDS011;45408;52.686;7.310;2023-08-06T12:21:48;4.88;;;2.60;;
59585;SDS011;45408;52.686;7.310;2023-08-06T12:24:14;2.75;;;2.28;;
59585;SDS011;45408;52.686;7.310;2023-08-06T12:26:40;2.45;;;2.25;;
59585;SDS011;45408;52.686;7.310;2023-08-06T12:29:07;3.05;;;2.75;;
59585;SDS011;45408;52.686;7.310;2023-08-06T12:31:33;3.33;;;2.35;;
59585;SDS011;45408;52.686;7.310;2023-08-06T12:33:59;4.07;;;2.17;;
59585;SDS011;45408;52.686;7.310;2023-08-06T12:36:25;2.78;;;2.35;;
59585;SDS011;45408;52.686;7.310;2023-08-06T12:38:51;4.63;;;2.78;;
59585;SDS011;45408;52.686;7.310;2023-08-06T12:41:17;3.03;;;2.40;;
59585;SDS011;45408;52.686;7.310;2023-08-06T12:43:43;3.72;;;2.47;;
59585;SDS011;45408;52.686;7.310;2023-08-06T12:46:09;4.90;;;2.40;;
59585;SDS011;45408;52.686;7.310;2023-08-06T12:48:36;5.28;;;2.17;;
59585;SDS011;45408;52.686;7.310;2023-08-06T12:51:02;2.75;;;2.25;;
59585;SDS011;45408;52.686;7.310;2023-08-06T12:53:28;2.78;;;2.20;;
59585;SDS011;45408;52.686;7.310;2023-08-06T12:55:54;4.82;;;2.20;;
59585;SDS011;45408;52.686;7.310;2023-08-06T12:58:20;2.97;;;2.05;;
59585;SDS011;45408;52.686;7.310;2023-08-06T13:00:53;3.22;;;2.00;;
59585;SDS011;45408;52.686;7.310;2023-08-06T13:03:20;3.08;;;1.90;;
59585;SDS011;45408;52.686;7.310;2023-08-06T13:05:46;3.42;;;2.28;;
59585;SDS011;45408;52.686;7.310;2023-08-06T13:08:12;3.95;;;2.05;;
59585;SDS011;45408;52.686;7.310;2023-08-06T13:10:38;4.25;;;2.38;;
59585;SDS011;45408;52.686;7.310;2023-08-06T13:13:04;4.35;;;2.30;;
59585;SDS011;45408;52.686;7.310;2023-08-06T13:15:30;2.22;;;2.03;;
59585;SDS011;45408;52.686;7.310;2023-08-06T13:17:56;2.08;;;1.88;;
59585;SDS011;45408;52.686;7.310;2023-08-06T13:20:22;2.50;;;1.90;;
59585;SDS011;45408;52.686;7.310;2023-08-06T13:22:48;4.03;;;2.00;;
59585;SDS011;45408;52.686;7.310;2023-08-06T13:25:15;2.40;;;1.92;;
59585;SDS011;45408;52.686;7.310;2023-08-06T13:27:42;5.43;;;1.60;;
59585;SDS011;45408;52.686;7.310;2023-08-06T13:30:09;6.43;;;2.03;;
59585;SDS011;45408;52.686;7.310;2023-08-06T13:32:35;3.22;;;2.08;;
59585;SDS011;45408;52.686;7.310;2023-08-06T13:35:02;2.10;;;1.88;;
59585;SDS011;45408;52.686;7.310;2023-08-06T13:37:29;3.10;;;1.92;;
59585;SDS011;45408;52.686;7.310;2023-08-06T13:39:55;2.95;;;1.70;;
59585;SDS011;45408;52.686;7.310;2023-08-06T13:42:21;2.25;;;1.90;;
59585;SDS011;45408;52.686;7.310;2023-08-06T13:44:47;2.50;;;1.88;;
59585;SDS011;45408;52.686;7.310;2023-08-06T13:47:13;2.47;;;2.05;;
59585;SDS011;45408;52.686;7.310;2023-08-06T13:49:39;2.28;;;2.00;;
59585;SDS011;45408;52.686;7.310;2023-08-06T13:52:05;3.13;;;2.40;;
59585;SDS011;45408;52.686;7.310;2023-08-06T13:54:31;4.68;;;2.20;;
59585;SDS011;45408;52.686;7.310;2023-08-06T13:56:57;4.22;;;2.47;;
59585;SDS011;45408;52.686;7.310;2023-08-06T13:59:23;4.53;;;1.88;;
59585;SDS011;45408;52.686;7.310;2023-08-06T14:01:49;3.15;;;2.25;;
59585;SDS011;45408;52.686;7.310;2023-08-06T14:04:18;2.97;;;1.95;;
59585;SDS011;45408;52.686;7.310;2023-08-06T14:06:45;4.03;;;3.03;;
59585;SDS011;45408;52.686;7.310;2023-08-06T14:09:11;3.67;;;2.10;;
59585;SDS011;45408;52.686;7.310;2023-08-06T14:11:39;2.83;;;2.17;;
59585;SDS011;45408;52.686;7.310;2023-08-06T14:14:05;5.93;;;4.07;;
59585;SDS011;45408;52.686;7.310;2023-08-06T14:16:32;3.60;;;2.08;;
59585;SDS011;45408;52.686;7.310;2023-08-06T14:19:02;3.10;;;2.58;;
59585;SDS011;45408;52.686;7.310;2023-08-06T14:21:28;4.07;;;2.72;;
59585;SDS011;45408;52.686;7.310;2023-08-06T14:23:54;6.85;;;3.00;;
59585;SDS011;45408;52.686;7.310;2023-08-06T14:26:20;5.75;;;2.80;;
59585;SDS011;45408;52.686;7.310;2023-08-06T14:28:46;8.65;;;2.60;;
59585;SDS011;45408;52.686;7.310;2023-08-06T14:31:12;8.65;;;2.80;;
59585;SDS011;45408;52.686;7.310;2023-08-06T14:33:38;4.18;;;2.90;;
59585;SDS011;45408;52.686;7.310;2023-08-06T14:36:04;2.92;;;2.30;;
59585;SDS011;45408;52.686;7.310;2023-08-06T14:38:30;3.67;;;2.70;;
59585;SDS011;45408;52.686;7.310;2023-08-06T14:40:59;8.15;;;3.90;;
59585;SDS011;45408;52.686;7.310;2023-08-06T14:43:25;4.93;;;3.65;;
59585;SDS011;45408;52.686;7.310;2023-08-06T14:45:51;4.10;;;2.75;;
59585;SDS011;45408;52.686;7.310;2023-08-06T14:48:17;6.05;;;2.90;;
59585;SDS011;45408;52.686;7.310;2023-08-06T14:50:43;3.58;;;2.80;;
59585;SDS011;45408;52.686;7.310;2023-08-06T14:53:09;3.80;;;2.78;;
59585;SDS011;45408;52.686;7.310;2023-08-06T14:55:36;5.70;;;2.90;;
59585;SDS011;45408;52.686;7.310;2023-08-06T14:58:03;5.38;;;2.63;;
59585;SDS011;45408;52.686;7.310;2023-08-06T15:00:29;5.47;;;2.10;;